sensor_id;sensor_type;location;lat;lon;timestamp;P1;durP1;ratioP1;P2;durP2;ratioP2
61108;SDS011;46995;55.740;37.402;2023-03-23T00:01:58;6.35;;;3.30;;
61108;SDS011;46995;55.740;37.402;2023-03-23T00:04:24;5.97;;;3.47;;
61108;SDS011;46995;55.740;37.402;2023-03-23T00:06:51;6.07;;;3.45;;
61108;SDS011;46995;55.740;37.402;2023-03-23T00:09:17;6.20;;;3.25;;
61108;SDS011;46995;55.740;37.402;2023-03-23T00:11:49;8.52;;;3.55;;
61108;SDS011;46995;55.740;37.402;2023-03-23T00:14:16;5.47;;;3.17;;
61108;SDS011;46995;55.740;37.402;2023-03-23T00:16:48;6.60;;;3.42;;
61108;SDS011;46995;55.740;37.402;2023-03-23T00:21:41;6.13;;;3.30;;
61108;SDS011;46995;55.740;37.402;2023-03-23T00:24:09;7.10;;;3.17;;
61108;SDS011;46995;55.740;37.402;2023-03-23T00:26:42;7.53;;;3.53;;
61108;SDS011;46995;55.740;37.402;2023-03-23T00:31:41;7.30;;;3.72;;
61108;SDS011;46995;55.740;37.402;2023-03-23T00:34:13;5.95;;;3.47;;
61108;SDS011;46995;55.740;37.402;2023-03-23T00:36:45;6.85;;;3.40;;
61108;SDS011;46995;55.740;37.402;2023-03-23T00:39:12;6.20;;;3.45;;
61108;SDS011;46995;55.740;37.402;2023-03-23T00:41:44;10.13;;;3.72;;
61108;SDS011;46995;55.740;37.402;2023-03-23T00:44:12;7.05;;;4.53;;
61108;SDS011;46995;55.740;37.402;2023-03-23T00:46:49;6.72;;;3.95;;
61108;SDS011;46995;55.740;37.402;2023-03-23T00:49:16;8.32;;;4.10;;
61108;SDS011;46995;55.740;37.402;2023-03-23T00:51:44;7.45;;;4.38;;
61108;SDS011;46995;55.740;37.402;2023-03-23T00:54:10;9.30;;;4.37;;
61108;SDS011;46995;55.740;37.402;2023-03-23T00:56:37;10.93;;;3.88;;
61108;SDS011;46995;55.740;37.402;2023-03-23T00:59:05;7.53;;;4.28;;
61108;SDS011;46995;55.740;37.402;2023-03-23T01:01:31;8.23;;;3.85;;
61108;SDS011;46995;55.740;37.402;2023-03-23T01:03:58;9.63;;;3.95;;
61108;SDS011;46995;55.740;37.402;2023-03-23T01:06:35;6.75;;;3.97;;
61108;SDS011;46995;55.740;37.402;2023-03-23T01:09:10;7.75;;;3.78;;
61108;SDS011;46995;55.740;37.402;2023-03-23T01:11:43;7.03;;;4.03;;
61108;SDS011;46995;55.740;37.402;2023-03-23T01:14:11;7.95;;;3.45;;
61108;SDS011;46995;55.740;37.402;2023-03-23T01:16:38;6.50;;;4.03;;
61108;SDS011;46995;55.740;37.402;2023-03-23T01:19:04;7.90;;;3.65;;
61108;SDS011;46995;55.740;37.402;2023-03-23T01:21:29;5.97;;;3.33;;
61108;SDS011;46995;55.740;37.402;2023-03-23T01:23:56;7.22;;;3.72;;
61108;SDS011;46995;55.740;37.402;2023-03-23T01:26:24;7.00;;;3.67;;
61108;SDS011;46995;55.740;37.402;2023-03-23T01:28:52;7.25;;;3.88;;
61108;SDS011;46995;55.740;37.402;2023-03-23T01:31:19;6.63;;;3.60;;
61108;SDS011;46995;55.740;37.402;2023-03-23T01:33:48;7.18;;;3.90;;
61108;SDS011;46995;55.740;37.402;2023-03-23T01:36:18;6.13;;;3.95;;
61108;SDS011;46995;55.740;37.402;2023-03-23T01:38:48;7.95;;;4.40;;
61108;SDS011;46995;55.740;37.402;2023-03-23T01:41:16;7.15;;;3.78;;
61108;SDS011;46995;55.740;37.402;2023-03-23T01:46:39;8.68;;;4.00;;
61108;SDS011;46995;55.740;37.402;2023-03-23T01:49:15;8.60;;;3.78;;
61108;SDS011;46995;55.740;37.402;2023-03-23T01:51:49;7.05;;;3.72;;
61108;SDS011;46995;55.740;37.402;2023-03-23T01:54:17;8.52;;;4.00;;
61108;SDS011;46995;55.740;37.402;2023-03-23T01:56:51;8.00;;;3.60;;
61108;SDS011;46995;55.740;37.402;2023-03-23T01:59:22;10.05;;;4.20;;
61108;SDS011;46995;55.740;37.402;2023-03-23T02:02:10;7.93;;;4.00;;
61108;SDS011;46995;55.740;37.402;2023-03-23T02:04:36;7.53;;;4.10;;
61108;SDS011;46995;55.740;37.402;2023-03-23T02:07:03;10.43;;;4.23;;
61108;SDS011;46995;55.740;37.402;2023-03-23T02:09:29;7.70;;;3.90;;
61108;SDS011;46995;55.740;37.402;2023-03-23T02:11:56;8.30;;;3.35;;
61108;SDS011;46995;55.740;37.402;2023-03-23T02:14:26;7.97;;;3.75;;
61108;SDS011;46995;55.740;37.402;2023-03-23T02:17:18;5.05;;;3.72;;
61108;SDS011;46995;55.740;37.402;2023-03-23T02:36:41;6.97;;;3.45;;
61108;SDS011;46995;55.740;37.402;2023-03-23T02:39:32;5.70;;;3.25;;
61108;SDS011;46995;55.740;37.402;2023-03-23T02:42:05;7.35;;;3.53;;
61108;SDS011;46995;55.740;37.402;2023-03-23T02:44:37;11.15;;;3.75;;
61108;SDS011;46995;55.740;37.402;2023-03-23T02:47:08;10.32;;;4.13;;
61108;SDS011;46995;55.740;37.402;2023-03-23T02:49:41;8.50;;;4.03;;
61108;SDS011;46995;55.740;37.402;2023-03-23T02:52:14;6.45;;;3.53;;
61108;SDS011;46995;55.740;37.402;2023-03-23T02:54:46;13.38;;;3.53;;
61108;SDS011;46995;55.740;37.402;2023-03-23T02:57:15;8.60;;;3.75;;
61108;SDS011;46995;55.740;37.402;2023-03-23T02:59:44;11.75;;;3.75;;
61108;SDS011;46995;55.740;37.402;2023-03-23T03:07:55;10.43;;;3.72;;
61108;SDS011;46995;55.740;37.402;2023-03-23T03:10:37;7.10;;;4.00;;
61108;SDS011;46995;55.740;37.402;2023-03-23T03:13:30;7.37;;;3.70;;
61108;SDS011;46995;55.740;37.402;2023-03-23T03:16:14;9.73;;;4.35;;
61108;SDS011;46995;55.740;37.402;2023-03-23T03:21:28;8.02;;;4.82;;
61108;SDS011;46995;55.740;37.402;2023-03-23T03:23:58;8.52;;;3.97;;
61108;SDS011;46995;55.740;37.402;2023-03-23T03:26:28;7.40;;;4.32;;
61108;SDS011;46995;55.740;37.402;2023-03-23T03:29:07;7.60;;;4.50;;
61108;SDS011;46995;55.740;37.402;2023-03-23T03:31:41;8.77;;;3.85;;
61108;SDS011;46995;55.740;37.402;2023-03-23T03:34:13;12.45;;;4.32;;
61108;SDS011;46995;55.740;37.402;2023-03-23T03:36:47;11.85;;;4.32;;
61108;SDS011;46995;55.740;37.402;2023-03-23T03:39:26;7.13;;;4.50;;
61108;SDS011;46995;55.740;37.402;2023-03-23T03:44:19;9.63;;;4.05;;
61108;SDS011;46995;55.740;37.402;2023-03-23T03:46:45;10.10;;;4.90;;
61108;SDS011;46995;55.740;37.402;2023-03-23T03:49:12;8.65;;;4.13;;
61108;SDS011;46995;55.740;37.402;2023-03-23T03:51:40;9.32;;;4.45;;
61108;SDS011;46995;55.740;37.402;2023-03-23T03:54:11;10.30;;;4.50;;
61108;SDS011;46995;55.740;37.402;2023-03-23T03:56:37;6.53;;;4.00;;
61108;SDS011;46995;55.740;37.402;2023-03-23T03:59:31;7.07;;;4.20;;
61108;SDS011;46995;55.740;37.402;2023-03-23T04:02:22;13.52;;;5.18;;
61108;SDS011;46995;55.740;37.402;2023-03-23T04:04:54;9.35;;;4.43;;
61108;SDS011;46995;55.740;37.402;2023-03-23T04:07:20;18.60;;;8.60;;
61108;SDS011;46995;55.740;37.402;2023-03-23T04:09:48;9.43;;;5.32;;
61108;SDS011;46995;55.740;37.402;2023-03-23T04:12:17;7.65;;;4.35;;
61108;SDS011;46995;55.740;37.402;2023-03-23T04:14:58;12.35;;;4.90;;
61108;SDS011;46995;55.740;37.402;2023-03-23T04:17:33;11.77;;;5.10;;
61108;SDS011;46995;55.740;37.402;2023-03-23T04:20:01;11.80;;;5.30;;
61108;SDS011;46995;55.740;37.402;2023-03-23T04:22:32;11.10;;;5.68;;
61108;SDS011;46995;55.740;37.402;2023-03-23T04:25:00;9.27;;;5.30;;
61108;SDS011;46995;55.740;37.402;2023-03-23T04:27:32;13.80;;;5.40;;
61108;SDS011;46995;55.740;37.402;2023-03-23T04:30:00;16.38;;;5.03;;
61108;SDS011;46995;55.740;37.402;2023-03-23T04:32:51;9.52;;;5.28;;
61108;SDS011;46995;55.740;37.402;2023-03-23T04:35:24;11.18;;;5.78;;
61108;SDS011;46995;55.740;37.402;2023-03-23T04:38:03;11.25;;;5.57;;
61108;SDS011;46995;55.740;37.402;2023-03-23T04:40:30;13.60;;;6.05;;
61108;SDS011;46995;55.740;37.402;2023-03-23T04:43:07;15.55;;;6.68;;
61108;SDS011;46995;55.740;37.402;2023-03-23T04:45:54;16.63;;;6.28;;
61108;SDS011;46995;55.740;37.402;2023-03-23T04:48:23;20.95;;;6.68;;
61108;SDS011;46995;55.740;37.402;2023-03-23T04:51:02;19.00;;;7.28;;
61108;SDS011;46995;55.740;37.402;2023-03-23T04:55:56;13.40;;;6.60;;
61108;SDS011;46995;55.740;37.402;2023-03-23T04:58:22;15.88;;;7.20;;
61108;SDS011;46995;55.740;37.402;2023-03-23T05:01:12;18.92;;;7.95;;
61108;SDS011;46995;55.740;37.402;2023-03-23T05:03:52;18.90;;;6.82;;
61108;SDS011;46995;55.740;37.402;2023-03-23T05:06:19;23.73;;;7.97;;
61108;SDS011;46995;55.740;37.402;2023-03-23T05:08:46;14.48;;;7.30;;
61108;SDS011;46995;55.740;37.402;2023-03-23T05:11:12;19.77;;;7.63;;
61108;SDS011;46995;55.740;37.402;2023-03-23T05:13:41;17.50;;;7.47;;
61108;SDS011;46995;55.740;37.402;2023-03-23T05:16:08;24.08;;;8.50;;
61108;SDS011;46995;55.740;37.402;2023-03-23T05:18:36;14.30;;;7.97;;
61108;SDS011;46995;55.740;37.402;2023-03-23T05:21:06;17.67;;;8.73;;
61108;SDS011;46995;55.740;37.402;2023-03-23T05:23:36;16.92;;;7.97;;
61108;SDS011;46995;55.740;37.402;2023-03-23T05:26:11;19.52;;;8.90;;
61108;SDS011;46995;55.740;37.402;2023-03-23T05:28:39;16.17;;;7.80;;
61108;SDS011;46995;55.740;37.402;2023-03-23T05:31:16;21.30;;;8.55;;
61108;SDS011;46995;55.740;37.402;2023-03-23T05:33:43;18.15;;;8.90;;
61108;SDS011;46995;55.740;37.402;2023-03-23T05:36:10;18.25;;;8.93;;
61108;SDS011;46995;55.740;37.402;2023-03-23T05:39:11;16.90;;;7.97;;
61108;SDS011;46995;55.740;37.402;2023-03-23T05:41:58;16.90;;;8.48;;
61108;SDS011;46995;55.740;37.402;2023-03-23T05:44:29;17.42;;;7.95;;
61108;SDS011;46995;55.740;37.402;2023-03-23T05:46:58;18.42;;;8.40;;
61108;SDS011;46995;55.740;37.402;2023-03-23T05:49:24;20.95;;;9.30;;
61108;SDS011;46995;55.740;37.402;2023-03-23T05:51:52;20.15;;;8.73;;
61108;SDS011;46995;55.740;37.402;2023-03-23T05:54:18;26.13;;;8.80;;
61108;SDS011;46995;55.740;37.402;2023-03-23T05:56:47;21.50;;;9.13;;
61108;SDS011;46995;55.740;37.402;2023-03-23T05:59:34;18.85;;;9.55;;
61108;SDS011;46995;55.740;37.402;2023-03-23T06:04:28;21.88;;;10.00;;
61108;SDS011;46995;55.740;37.402;2023-03-23T06:07:12;34.58;;;13.60;;
61108;SDS011;46995;55.740;37.402;2023-03-23T06:09:44;24.02;;;9.60;;
61108;SDS011;46995;55.740;37.402;2023-03-23T06:12:22;21.95;;;9.43;;
61108;SDS011;46995;55.740;37.402;2023-03-23T06:15:07;17.48;;;9.35;;
61108;SDS011;46995;55.740;37.402;2023-03-23T06:18:00;16.10;;;8.48;;
61108;SDS011;46995;55.740;37.402;2023-03-23T06:20:48;21.92;;;9.80;;
61108;SDS011;46995;55.740;37.402;2023-03-23T06:23:32;23.50;;;10.50;;
61108;SDS011;46995;55.740;37.402;2023-03-23T06:26:04;28.50;;;10.35;;
61108;SDS011;46995;55.740;37.402;2023-03-23T06:28:32;21.80;;;10.50;;
61108;SDS011;46995;55.740;37.402;2023-03-23T06:31:03;19.25;;;10.02;;
61108;SDS011;46995;55.740;37.402;2023-03-23T06:33:33;22.73;;;10.32;;
61108;SDS011;46995;55.740;37.402;2023-03-23T06:36:15;21.77;;;9.50;;
61108;SDS011;46995;55.740;37.402;2023-03-23T06:38:59;18.90;;;8.75;;
61108;SDS011;46995;55.740;37.402;2023-03-23T06:41:49;18.90;;;8.50;;
61108;SDS011;46995;55.740;37.402;2023-03-23T06:44:16;16.23;;;8.85;;
61108;SDS011;46995;55.740;37.402;2023-03-23T06:46:41;17.90;;;9.85;;
61108;SDS011;46995;55.740;37.402;2023-03-23T06:49:37;23.30;;;8.98;;
61108;SDS011;46995;55.740;37.402;2023-03-23T06:52:15;20.52;;;9.27;;
61108;SDS011;46995;55.740;37.402;2023-03-23T06:54:41;18.77;;;8.82;;
61108;SDS011;46995;55.740;37.402;2023-03-23T06:57:08;31.73;;;9.55;;
61108;SDS011;46995;55.740;37.402;2023-03-23T06:59:34;17.33;;;9.57;;
61108;SDS011;46995;55.740;37.402;2023-03-23T07:02:01;29.13;;;9.00;;
61108;SDS011;46995;55.740;37.402;2023-03-23T07:04:27;17.15;;;8.70;;
61108;SDS011;46995;55.740;37.402;2023-03-23T07:07:05;22.83;;;8.98;;
61108;SDS011;46995;55.740;37.402;2023-03-23T07:09:38;19.52;;;8.10;;
61108;SDS011;46995;55.740;37.402;2023-03-23T07:12:04;24.15;;;8.88;;
61108;SDS011;46995;55.740;37.402;2023-03-23T07:14:37;19.77;;;7.80;;
61108;SDS011;46995;55.740;37.402;2023-03-23T07:17:03;16.73;;;8.77;;
61108;SDS011;46995;55.740;37.402;2023-03-23T07:19:33;15.85;;;8.60;;
61108;SDS011;46995;55.740;37.402;2023-03-23T07:22:00;15.35;;;7.88;;
61108;SDS011;46995;55.740;37.402;2023-03-23T07:24:26;16.38;;;7.63;;
61108;SDS011;46995;55.740;37.402;2023-03-23T07:27:03;18.48;;;7.65;;
61108;SDS011;46995;55.740;37.402;2023-03-23T07:29:29;14.75;;;7.35;;
61108;SDS011;46995;55.740;37.402;2023-03-23T07:32:05;14.82;;;7.60;;
61108;SDS011;46995;55.740;37.402;2023-03-23T07:34:34;13.73;;;7.60;;
61108;SDS011;46995;55.740;37.402;2023-03-23T07:37:11;15.75;;;6.88;;
61108;SDS011;46995;55.740;37.402;2023-03-23T07:39:40;16.83;;;7.03;;
61108;SDS011;46995;55.740;37.402;2023-03-23T07:42:06;11.75;;;7.13;;
61108;SDS011;46995;55.740;37.402;2023-03-23T07:44:41;12.25;;;7.00;;
61108;SDS011;46995;55.740;37.402;2023-03-23T07:47:11;15.38;;;7.15;;
61108;SDS011;46995;55.740;37.402;2023-03-23T07:49:37;13.05;;;7.18;;
61108;SDS011;46995;55.740;37.402;2023-03-23T07:52:28;12.13;;;6.68;;
61108;SDS011;46995;55.740;37.402;2023-03-23T07:54:55;13.30;;;7.18;;
61108;SDS011;46995;55.740;37.402;2023-03-23T07:57:41;11.82;;;6.72;;
61108;SDS011;46995;55.740;37.402;2023-03-23T08:00:07;15.90;;;7.15;;
61108;SDS011;46995;55.740;37.402;2023-03-23T08:02:48;13.52;;;6.97;;
61108;SDS011;46995;55.740;37.402;2023-03-23T08:05:38;15.00;;;6.75;;
61108;SDS011;46995;55.740;37.402;2023-03-23T08:08:31;18.65;;;6.63;;
61108;SDS011;46995;55.740;37.402;2023-03-23T08:11:20;15.38;;;6.93;;
61108;SDS011;46995;55.740;37.402;2023-03-23T08:14:25;12.40;;;7.03;;
61108;SDS011;46995;55.740;37.402;2023-03-23T08:17:09;14.00;;;7.43;;
61108;SDS011;46995;55.740;37.402;2023-03-23T08:19:44;15.02;;;7.38;;
61108;SDS011;46995;55.740;37.402;2023-03-23T08:22:34;15.77;;;7.13;;
61108;SDS011;46995;55.740;37.402;2023-03-23T08:25:16;14.93;;;7.18;;
61108;SDS011;46995;55.740;37.402;2023-03-23T08:27:59;14.32;;;6.65;;
61108;SDS011;46995;55.740;37.402;2023-03-23T08:30:52;13.25;;;7.53;;
61108;SDS011;46995;55.740;37.402;2023-03-23T08:33:31;11.65;;;7.03;;
61108;SDS011;46995;55.740;37.402;2023-03-23T08:36:10;27.70;;;7.75;;
61108;SDS011;46995;55.740;37.402;2023-03-23T08:39:11;18.98;;;7.95;;
61108;SDS011;46995;55.740;37.402;2023-03-23T08:41:58;19.08;;;7.35;;
61108;SDS011;46995;55.740;37.402;2023-03-23T08:44:56;11.48;;;7.45;;
61108;SDS011;46995;55.740;37.402;2023-03-23T08:47:48;19.05;;;7.63;;
61108;SDS011;46995;55.740;37.402;2023-03-23T08:50:35;11.95;;;7.65;;
61108;SDS011;46995;55.740;37.402;2023-03-23T08:53:15;16.13;;;7.50;;
61108;SDS011;46995;55.740;37.402;2023-03-23T08:55:41;13.02;;;7.20;;
61108;SDS011;46995;55.740;37.402;2023-03-23T08:58:37;14.27;;;7.47;;
61108;SDS011;46995;55.740;37.402;2023-03-23T09:01:23;12.00;;;7.20;;
61108;SDS011;46995;55.740;37.402;2023-03-23T09:04:04;14.15;;;7.68;;
61108;SDS011;46995;55.740;37.402;2023-03-23T09:06:48;20.30;;;7.40;;
61108;SDS011;46995;55.740;37.402;2023-03-23T09:09:14;14.32;;;7.10;;
61108;SDS011;46995;55.740;37.402;2023-03-23T09:11:40;14.73;;;8.20;;
61108;SDS011;46995;55.740;37.402;2023-03-23T09:14:06;21.95;;;8.23;;
61108;SDS011;46995;55.740;37.402;2023-03-23T09:16:34;17.58;;;9.27;;
61108;SDS011;46995;55.740;37.402;2023-03-23T09:19:00;12.55;;;7.13;;
61108;SDS011;46995;55.740;37.402;2023-03-23T09:21:26;14.70;;;7.30;;
61108;SDS011;46995;55.740;37.402;2023-03-23T09:23:52;13.50;;;7.38;;
61108;SDS011;46995;55.740;37.402;2023-03-23T09:26:21;13.43;;;6.93;;
61108;SDS011;46995;55.740;37.402;2023-03-23T09:28:48;18.40;;;7.60;;
61108;SDS011;46995;55.740;37.402;2023-03-23T09:31:14;10.65;;;7.05;;
61108;SDS011;46995;55.740;37.402;2023-03-23T09:33:41;11.27;;;6.47;;
61108;SDS011;46995;55.740;37.402;2023-03-23T09:36:10;8.77;;;5.90;;
61108;SDS011;46995;55.740;37.402;2023-03-23T09:38:38;11.15;;;6.50;;
61108;SDS011;46995;55.740;37.402;2023-03-23T09:47:03;12.07;;;6.28;;
61108;SDS011;46995;55.740;37.402;2023-03-23T09:49:41;8.00;;;4.93;;
61108;SDS011;46995;55.740;37.402;2023-03-23T09:54:48;8.95;;;5.40;;
61108;SDS011;46995;55.740;37.402;2023-03-23T09:57:22;9.05;;;5.65;;
61108;SDS011;46995;55.740;37.402;2023-03-23T10:02:48;11.38;;;5.20;;
61108;SDS011;46995;55.740;37.402;2023-03-23T10:05:25;12.00;;;5.38;;
61108;SDS011;46995;55.740;37.402;2023-03-23T10:08:18;9.13;;;5.75;;
61108;SDS011;46995;55.740;37.402;2023-03-23T10:10:59;8.25;;;4.97;;
61108;SDS011;46995;55.740;37.402;2023-03-23T10:16:22;10.45;;;5.15;;
61108;SDS011;46995;55.740;37.402;2023-03-23T10:21:37;10.55;;;5.47;;
61108;SDS011;46995;55.740;37.402;2023-03-23T10:24:10;12.32;;;5.15;;
61108;SDS011;46995;55.740;37.402;2023-03-23T10:26:52;9.77;;;4.82;;
61108;SDS011;46995;55.740;37.402;2023-03-23T10:29:30;11.23;;;5.30;;
61108;SDS011;46995;55.740;37.402;2023-03-23T10:32:05;8.60;;;5.38;;
61108;SDS011;46995;55.740;37.402;2023-03-23T10:37:11;7.57;;;5.38;;
61108;SDS011;46995;55.740;37.402;2023-03-23T10:39:52;7.75;;;4.80;;
61108;SDS011;46995;55.740;37.402;2023-03-23T10:42:31;8.88;;;4.53;;
61108;SDS011;46995;55.740;37.402;2023-03-23T10:45:23;9.15;;;4.70;;
61108;SDS011;46995;55.740;37.402;2023-03-23T10:47:56;10.20;;;5.32;;
61108;SDS011;46995;55.740;37.402;2023-03-23T10:50:34;11.05;;;5.18;;
61108;SDS011;46995;55.740;37.402;2023-03-23T10:53:05;17.02;;;5.13;;
61108;SDS011;46995;55.740;37.402;2023-03-23T10:55:42;11.15;;;4.30;;
61108;SDS011;46995;55.740;37.402;2023-03-23T10:58:21;9.00;;;4.35;;
61108;SDS011;46995;55.740;37.402;2023-03-23T11:00:50;9.73;;;5.07;;
61108;SDS011;46995;55.740;37.402;2023-03-23T11:06:05;6.30;;;4.43;;
61108;SDS011;46995;55.740;37.402;2023-03-23T11:08:35;13.60;;;4.32;;
61108;SDS011;46995;55.740;37.402;2023-03-23T11:13:48;8.73;;;3.95;;
61108;SDS011;46995;55.740;37.402;2023-03-23T11:16:23;9.57;;;4.47;;
61108;SDS011;46995;55.740;37.402;2023-03-23T11:18:50;9.77;;;5.07;;
61108;SDS011;46995;55.740;37.402;2023-03-23T11:21:17;6.80;;;4.10;;
61108;SDS011;46995;55.740;37.402;2023-03-23T11:23:53;7.95;;;4.75;;
61108;SDS011;46995;55.740;37.402;2023-03-23T11:29:12;7.75;;;4.20;;
61108;SDS011;46995;55.740;37.402;2023-03-23T11:31:43;9.40;;;3.88;;
61108;SDS011;46995;55.740;37.402;2023-03-23T11:36:53;17.10;;;4.45;;
61108;SDS011;46995;55.740;37.402;2023-03-23T11:39:28;9.18;;;4.97;;
61108;SDS011;46995;55.740;37.402;2023-03-23T11:42:01;12.15;;;4.80;;
61108;SDS011;46995;55.740;37.402;2023-03-23T11:44:41;9.05;;;4.28;;
61108;SDS011;46995;55.740;37.402;2023-03-23T11:55:17;11.15;;;4.28;;
61108;SDS011;46995;55.740;37.402;2023-03-23T11:57:47;10.13;;;5.10;;
61108;SDS011;46995;55.740;37.402;2023-03-23T12:00:15;9.95;;;4.88;;
61108;SDS011;46995;55.740;37.402;2023-03-23T12:05:51;12.90;;;4.55;;
61108;SDS011;46995;55.740;37.402;2023-03-23T12:11:37;10.65;;;4.28;;
61108;SDS011;46995;55.740;37.402;2023-03-23T12:16:56;7.32;;;4.07;;
61108;SDS011;46995;55.740;37.402;2023-03-23T12:25:51;11.18;;;4.90;;
61108;SDS011;46995;55.740;37.402;2023-03-23T12:45:25;6.93;;;4.25;;
61108;SDS011;46995;55.740;37.402;2023-03-23T12:48:10;9.65;;;4.28;;
61108;SDS011;46995;55.740;37.402;2023-03-23T12:51:00;10.48;;;4.60;;
61108;SDS011;46995;55.740;37.402;2023-03-23T12:54:24;6.93;;;3.97;;
61108;SDS011;46995;55.740;37.402;2023-03-23T12:59:42;10.38;;;4.63;;
61108;SDS011;46995;55.740;37.402;2023-03-23T13:02:35;11.40;;;4.47;;
61108;SDS011;46995;55.740;37.402;2023-03-23T13:07:51;6.68;;;4.32;;
61108;SDS011;46995;55.740;37.402;2023-03-23T13:10:32;9.98;;;4.68;;
61108;SDS011;46995;55.740;37.402;2023-03-23T13:13:01;8.68;;;4.13;;
61108;SDS011;46995;55.740;37.402;2023-03-23T13:20:55;10.23;;;4.07;;
61108;SDS011;46995;55.740;37.402;2023-03-23T13:23:47;9.30;;;4.50;;
61108;SDS011;46995;55.740;37.402;2023-03-23T13:26:19;9.07;;;4.70;;
61108;SDS011;46995;55.740;37.402;2023-03-23T13:28:54;12.25;;;4.55;;
61108;SDS011;46995;55.740;37.402;2023-03-23T13:31:31;17.80;;;5.90;;
61108;SDS011;46995;55.740;37.402;2023-03-23T13:34:00;11.45;;;4.63;;
61108;SDS011;46995;55.740;37.402;2023-03-23T13:39:27;10.50;;;4.40;;
61108;SDS011;46995;55.740;37.402;2023-03-23T14:00:44;12.07;;;4.45;;
61108;SDS011;46995;55.740;37.402;2023-03-23T14:03:25;13.43;;;4.63;;
61108;SDS011;46995;55.740;37.402;2023-03-23T14:06:01;8.55;;;4.45;;
61108;SDS011;46995;55.740;37.402;2023-03-23T14:08:37;6.70;;;3.90;;
61108;SDS011;46995;55.740;37.402;2023-03-23T14:11:19;10.55;;;4.20;;
61108;SDS011;46995;55.740;37.402;2023-03-23T14:14:07;9.35;;;4.20;;
61108;SDS011;46995;55.740;37.402;2023-03-23T14:16:50;7.30;;;4.13;;
61108;SDS011;46995;55.740;37.402;2023-03-23T14:19:46;6.05;;;4.20;;
61108;SDS011;46995;55.740;37.402;2023-03-23T14:22:36;6.57;;;3.95;;
61108;SDS011;46995;55.740;37.402;2023-03-23T14:25:25;11.85;;;4.10;;
61108;SDS011;46995;55.740;37.402;2023-03-23T14:27:54;10.50;;;4.65;;
61108;SDS011;46995;55.740;37.402;2023-03-23T14:30:26;11.32;;;4.63;;
61108;SDS011;46995;55.740;37.402;2023-03-23T14:33:04;8.57;;;4.85;;
61108;SDS011;46995;55.740;37.402;2023-03-23T14:35:34;15.52;;;4.80;;
61108;SDS011;46995;55.740;37.402;2023-03-23T14:38:02;12.90;;;4.55;;
61108;SDS011;46995;55.740;37.402;2023-03-23T14:40:29;17.60;;;4.80;;
61108;SDS011;46995;55.740;37.402;2023-03-23T14:45:23;7.35;;;4.28;;
61108;SDS011;46995;55.740;37.402;2023-03-23T14:48:00;9.63;;;4.20;;
61108;SDS011;46995;55.740;37.402;2023-03-23T14:50:29;6.65;;;4.65;;
61108;SDS011;46995;55.740;37.402;2023-03-23T14:56:14;6.00;;;3.67;;
61108;SDS011;46995;55.740;37.402;2023-03-23T15:01:17;8.90;;;3.90;;
61108;SDS011;46995;55.740;37.402;2023-03-23T15:04:27;16.70;;;5.05;;
61108;SDS011;46995;55.740;37.402;2023-03-23T15:06:39;9.85;;;4.32;;
61108;SDS011;46995;55.740;37.402;2023-03-23T15:09:26;10.13;;;5.00;;
61108;SDS011;46995;55.740;37.402;2023-03-23T15:11:56;10.10;;;4.32;;
61108;SDS011;46995;55.740;37.402;2023-03-23T15:14:30;8.00;;;4.82;;
61108;SDS011;46995;55.740;37.402;2023-03-23T15:17:09;9.50;;;5.07;;
61108;SDS011;46995;55.740;37.402;2023-03-23T15:19:43;7.93;;;4.60;;
61108;SDS011;46995;55.740;37.402;2023-03-23T15:24:43;10.55;;;4.63;;
61108;SDS011;46995;55.740;37.402;2023-03-23T15:27:11;10.55;;;4.90;;
61108;SDS011;46995;55.740;37.402;2023-03-23T15:29:50;11.10;;;4.53;;
61108;SDS011;46995;55.740;37.402;2023-03-23T15:32:28;11.18;;;4.75;;
61108;SDS011;46995;55.740;37.402;2023-03-23T15:35:04;15.40;;;4.90;;
61108;SDS011;46995;55.740;37.402;2023-03-23T15:37:39;19.20;;;5.10;;
61108;SDS011;46995;55.740;37.402;2023-03-23T15:40:24;9.93;;;4.83;;
61108;SDS011;46995;55.740;37.402;2023-03-23T15:45:51;13.95;;;4.80;;
61108;SDS011;46995;55.740;37.402;2023-03-23T15:48:19;10.75;;;5.15;;
61108;SDS011;46995;55.740;37.402;2023-03-23T15:50:46;14.57;;;5.20;;
61108;SDS011;46995;55.740;37.402;2023-03-23T15:53:19;11.25;;;4.97;;
61108;SDS011;46995;55.740;37.402;2023-03-23T15:55:48;18.33;;;5.55;;
61108;SDS011;46995;55.740;37.402;2023-03-23T15:58:14;14.23;;;5.35;;
61108;SDS011;46995;55.740;37.402;2023-03-23T16:00:40;20.05;;;7.38;;
61108;SDS011;46995;55.740;37.402;2023-03-23T16:03:10;15.20;;;8.20;;
61108;SDS011;46995;55.740;37.402;2023-03-23T16:05:38;16.42;;;7.03;;
61108;SDS011;46995;55.740;37.402;2023-03-23T16:08:04;16.73;;;6.15;;
61108;SDS011;46995;55.740;37.402;2023-03-23T16:10:30;14.48;;;6.10;;
61108;SDS011;46995;55.740;37.402;2023-03-23T16:12:56;9.68;;;4.90;;
61108;SDS011;46995;55.740;37.402;2023-03-23T16:15:22;10.55;;;5.00;;
61108;SDS011;46995;55.740;37.402;2023-03-23T16:17:48;9.07;;;5.20;;
61108;SDS011;46995;55.740;37.402;2023-03-23T16:20:15;15.43;;;5.20;;
61108;SDS011;46995;55.740;37.402;2023-03-23T16:22:45;10.63;;;5.22;;
61108;SDS011;46995;55.740;37.402;2023-03-23T16:25:11;11.55;;;5.30;;
61108;SDS011;46995;55.740;37.402;2023-03-23T16:27:38;12.10;;;5.20;;
61108;SDS011;46995;55.740;37.402;2023-03-23T16:32:42;11.57;;;5.07;;
61108;SDS011;46995;55.740;37.402;2023-03-23T16:35:08;18.40;;;5.50;;
61108;SDS011;46995;55.740;37.402;2023-03-23T16:37:35;11.75;;;5.63;;
61108;SDS011;46995;55.740;37.402;2023-03-23T16:40:02;14.27;;;5.75;;
61108;SDS011;46995;55.740;37.402;2023-03-23T16:42:29;9.73;;;5.15;;
61108;SDS011;46995;55.740;37.402;2023-03-23T16:44:58;11.35;;;5.15;;
61108;SDS011;46995;55.740;37.402;2023-03-23T16:47:23;8.35;;;4.90;;
61108;SDS011;46995;55.740;37.402;2023-03-23T16:49:52;10.40;;;5.00;;
61108;SDS011;46995;55.740;37.402;2023-03-23T16:52:23;9.32;;;5.10;;
61108;SDS011;46995;55.740;37.402;2023-03-23T16:54:49;14.07;;;5.13;;
61108;SDS011;46995;55.740;37.402;2023-03-23T16:57:15;8.88;;;4.85;;
61108;SDS011;46995;55.740;37.402;2023-03-23T16:59:44;9.70;;;4.47;;
61108;SDS011;46995;55.740;37.402;2023-03-23T17:02:10;8.50;;;5.25;;
61108;SDS011;46995;55.740;37.402;2023-03-23T17:04:41;11.30;;;4.88;;
61108;SDS011;46995;55.740;37.402;2023-03-23T17:07:12;10.02;;;5.25;;
61108;SDS011;46995;55.740;37.402;2023-03-23T17:09:38;9.98;;;5.28;;
61108;SDS011;46995;55.740;37.402;2023-03-23T17:12:05;11.70;;;5.40;;
61108;SDS011;46995;55.740;37.402;2023-03-23T17:14:31;11.90;;;6.10;;
61108;SDS011;46995;55.740;37.402;2023-03-23T17:16:57;10.48;;;5.40;;
61108;SDS011;46995;55.740;37.402;2023-03-23T17:19:23;9.27;;;5.23;;
61108;SDS011;46995;55.740;37.402;2023-03-23T17:21:50;18.73;;;5.85;;
61108;SDS011;46995;55.740;37.402;2023-03-23T17:24:16;17.52;;;5.53;;
61108;SDS011;46995;55.740;37.402;2023-03-23T17:26:43;9.25;;;5.22;;
61108;SDS011;46995;55.740;37.402;2023-03-23T17:29:09;9.77;;;4.53;;
61108;SDS011;46995;55.740;37.402;2023-03-23T17:31:35;12.82;;;5.95;;
61108;SDS011;46995;55.740;37.402;2023-03-23T17:34:01;11.67;;;6.47;;
61108;SDS011;46995;55.740;37.402;2023-03-23T17:36:27;15.55;;;7.90;;
61108;SDS011;46995;55.740;37.402;2023-03-23T17:38:54;11.27;;;6.38;;
61108;SDS011;46995;55.740;37.402;2023-03-23T17:41:20;17.85;;;6.45;;
61108;SDS011;46995;55.740;37.402;2023-03-23T17:43:46;12.95;;;6.50;;